createdAt,value
2018-06-14T00:01:48.234Z,24.46
2018-06-14T00:04:14.203Z,24.41
2018-06-14T00:06:40.168Z,24.32
2018-06-14T00:09:06.126Z,24.23
2018-06-14T00:11:32.093Z,24.20
2018-06-14T00:13:58.071Z,24.15
2018-06-14T00:16:24.022Z,24.13
2018-06-14T00:18:50.000Z,24.07
2018-06-14T00:21:15.984Z,24.03
2018-06-14T00:23:41.946Z,24.07
2018-06-14T00:26:07.913Z,24.05
2018-06-14T00:28:33.866Z,24.01
2018-06-14T00:30:59.817Z,24.04
2018-06-14T00:33:25.774Z,24.02
2018-06-14T00:35:51.743Z,24.04
2018-06-14T00:38:17.712Z,24.00
2018-06-14T00:40:44.224Z,24.10
2018-06-14T00:43:10.190Z,24.32
2018-06-14T00:45:36.190Z,24.27
2018-06-14T00:48:02.155Z,24.35
2018-06-14T00:50:28.151Z,24.29
2018-06-14T00:52:54.205Z,24.33
2018-06-14T00:55:20.181Z,24.15
2018-06-14T00:57:46.131Z,24.09
2018-06-14T01:00:12.139Z,24.10
2018-06-14T01:02:38.108Z,24.14
2018-06-14T01:05:04.069Z,24.10
2018-06-14T01:07:30.035Z,24.01
2018-06-14T01:09:56.000Z,24.05
2018-06-14T01:12:21.977Z,24.09
2018-06-14T01:14:47.952Z,24.10
2018-06-14T01:17:13.928Z,24.10
2018-06-14T01:19:39.886Z,24.09
2018-06-14T01:22:05.868Z,24.07
2018-06-14T01:24:31.864Z,24.08
2018-06-14T01:26:57.827Z,24.17
2018-06-14T01:29:23.799Z,24.30
2018-06-14T01:31:49.762Z,24.32
2018-06-14T01:34:15.710Z,24.52
2018-06-14T01:36:41.688Z,24.27
2018-06-14T01:39:07.683Z,24.26
2018-06-14T01:41:33.676Z,24.13
2018-06-14T01:43:59.656Z,24.14
2018-06-14T01:46:25.636Z,24.07
2018-06-14T01:48:51.627Z,24.04
2018-06-14T01:51:17.608Z,24.00
2018-06-14T01:53:43.585Z,24.03
2018-06-14T01:56:09.539Z,24.03
2018-06-14T01:58:35.515Z,24.02
2018-06-14T02:01:01.468Z,24.04
2018-06-14T02:03:27.425Z,23.97
2018-06-14T02:05:53.510Z,23.99
2018-06-14T02:08:19.493Z,24.06
2018-06-14T02:10:45.447Z,24.17
2018-06-14T02:13:11.471Z,24.40
2018-06-14T02:15:37.460Z,24.52
2018-06-14T02:18:03.410Z,24.42
2018-06-14T02:20:29.367Z,24.43
2018-06-14T02:22:55.344Z,24.16
2018-06-14T02:25:21.325Z,24.18
2018-06-14T02:27:47.290Z,24.07
2018-06-14T02:30:13.252Z,24.13
2018-06-14T02:32:39.205Z,24.02
2018-06-14T02:35:05.189Z,24.00
2018-06-14T02:37:31.154Z,23.99
2018-06-14T02:39:57.121Z,23.99
2018-06-14T02:42:23.721Z,24.03
2018-06-14T02:44:49.683Z,24.01
2018-06-14T02:47:15.639Z,23.96
2018-06-14T02:49:41.617Z,23.98
2018-06-14T02:52:07.632Z,23.95
2018-06-14T02:54:33.601Z,24.24
2018-06-14T02:56:59.563Z,24.38
2018-06-14T02:59:25.552Z,24.51
2018-06-14T03:01:51.514Z,24.47
2018-06-14T03:04:17.492Z,24.52
2018-06-14T03:06:43.443Z,24.34
2018-06-14T03:09:09.427Z,24.21
2018-06-14T03:11:35.373Z,24.14
2018-06-14T03:14:01.356Z,24.08
2018-06-14T03:16:27.311Z,24.00
2018-06-14T03:18:53.285Z,24.01
2018-06-14T03:21:19.236Z,24.00
2018-06-14T03:23:45.276Z,24.06
2018-06-14T03:26:11.250Z,23.97
2018-06-14T03:28:37.210Z,23.98
2018-06-14T03:31:03.260Z,23.99
2018-06-14T03:33:29.315Z,23.94
2018-06-14T03:35:55.295Z,24.02
2018-06-14T03:38:21.270Z,24.21
2018-06-14T03:40:47.292Z,24.21
2018-06-14T03:43:13.263Z,24.38
2018-06-14T03:45:39.251Z,24.38
2018-06-14T03:48:05.266Z,24.26
2018-06-14T03:50:31.232Z,24.12
2018-06-14T03:52:57.190Z,24.07
2018-06-14T03:55:23.204Z,24.10
2018-06-14T03:57:49.182Z,24.00
2018-06-14T04:00:15.155Z,24.03
2018-06-14T04:02:41.129Z,23.99
2018-06-14T04:05:07.086Z,23.98
2018-06-14T04:07:33.755Z,23.92
2018-06-14T04:09:59.749Z,23.98
2018-06-14T04:12:25.727Z,23.96
2018-06-14T04:14:51.676Z,23.94
2018-06-14T04:17:17.641Z,23.94
2018-06-14T04:19:43.603Z,24.03
2018-06-14T04:22:09.569Z,24.00
2018-06-14T04:24:35.527Z,24.06
2018-06-14T04:27:01.480Z,24.28
2018-06-14T04:29:27.439Z,24.48
2018-06-14T04:31:53.409Z,24.35
2018-06-14T04:34:19.378Z,24.14
2018-06-14T04:36:45.331Z,24.06
2018-06-14T04:39:11.276Z,24.02
2018-06-14T04:41:37.301Z,24.02
2018-06-14T04:44:03.272Z,23.96
2018-06-14T04:46:29.231Z,24.01
2018-06-14T04:48:55.200Z,23.90
2018-06-14T04:51:21.187Z,23.93
2018-06-14T04:53:47.155Z,23.91
2018-06-14T04:56:13.128Z,23.99
2018-06-14T04:58:39.091Z,24.01
2018-06-14T05:01:05.083Z,23.95
2018-06-14T05:03:31.056Z,23.96
2018-06-14T05:05:57.011Z,24.02
2018-06-14T05:08:22.979Z,24.14
2018-06-14T05:10:48.926Z,24.15
2018-06-14T05:13:14.968Z,24.18
2018-06-14T05:15:40.967Z,24.20
2018-06-14T05:18:07.011Z,24.05
2018-06-14T05:20:32.924Z,24.13
2018-06-14T05:22:58.893Z,24.04
2018-06-14T05:25:24.865Z,24.01
2018-06-14T05:27:50.815Z,23.95
2018-06-14T05:30:16.786Z,23.93
2018-06-14T05:32:42.736Z,23.92
2018-06-14T05:35:08.722Z,23.95
2018-06-14T05:37:34.676Z,23.94
2018-06-14T05:40:00.634Z,23.92
2018-06-14T05:42:26.651Z,24.00
2018-06-14T05:44:52.633Z,23.98
2018-06-14T05:47:18.627Z,24.01
2018-06-14T05:49:44.587Z,24.01
2018-06-14T05:52:10.537Z,23.98
2018-06-14T05:54:36.572Z,24.08
2018-06-14T05:57:02.554Z,24.06
2018-06-14T05:59:28.616Z,24.02
2018-06-14T06:01:54.581Z,23.96
2018-06-14T06:04:20.529Z,23.98
2018-06-14T06:06:46.614Z,24.01
2018-06-14T06:09:12.565Z,24.02
2018-06-14T06:11:38.543Z,23.98
2018-06-14T06:14:04.495Z,24.00
2018-06-14T06:16:30.493Z,24.01
2018-06-14T06:18:56.575Z,24.04
2018-06-14T06:21:22.540Z,24.04
2018-06-14T06:23:48.576Z,24.00
2018-06-14T06:26:14.606Z,24.04
2018-06-14T06:28:40.496Z,24.11
2018-06-14T06:31:06.468Z,24.07
2018-06-14T06:33:32.469Z,24.05
2018-06-14T06:35:58.431Z,24.12
2018-06-14T06:38:24.425Z,24.22
2018-06-14T06:40:50.409Z,24.41
2018-06-14T06:43:16.363Z,24.15
2018-06-14T06:45:42.335Z,24.22
2018-06-14T06:48:08.282Z,24.09
2018-06-14T06:50:34.244Z,24.28
2018-06-14T06:53:00.327Z,24.15
2018-06-14T06:55:26.218Z,24.12
2018-06-14T06:57:52.184Z,24.10
2018-06-14T07:00:18.172Z,24.07
2018-06-14T07:02:44.121Z,24.13
2018-06-14T07:05:10.072Z,24.17
2018-06-14T07:07:36.076Z,24.13
2018-06-14T07:10:02.049Z,24.13
2018-06-14T07:12:28.016Z,24.16
2018-06-14T07:14:53.965Z,24.13
2018-06-14T07:17:19.926Z,24.06
2018-06-14T07:19:45.876Z,24.14
2018-06-14T07:22:11.832Z,24.13
2018-06-14T07:24:38.705Z,24.12
2018-06-14T07:27:04.674Z,24.10
2018-06-14T07:29:30.673Z,24.12
2018-06-14T07:31:56.636Z,24.06
2018-06-14T07:34:22.616Z,24.11
2018-06-14T07:36:48.648Z,24.07
2018-06-14T07:39:14.609Z,24.15
2018-06-14T07:41:40.602Z,24.12
2018-06-14T07:44:06.599Z,24.13
2018-06-14T07:46:32.556Z,24.12
2018-06-14T07:48:58.547Z,24.14
2018-06-14T07:51:24.525Z,24.08
2018-06-14T07:53:50.502Z,24.13
2018-06-14T07:56:16.528Z,24.06
2018-06-14T07:58:42.498Z,23.98
2018-06-14T08:01:08.513Z,23.98
2018-06-14T08:03:34.481Z,24.08
2018-06-14T08:06:00.444Z,24.08
2018-06-14T08:08:26.419Z,24.10
2018-06-14T08:10:52.384Z,24.11
2018-06-14T08:13:18.378Z,24.04
2018-06-14T08:15:44.351Z,24.00
2018-06-14T08:18:10.328Z,24.01
2018-06-14T08:20:36.297Z,24.05
2018-06-14T08:23:02.257Z,24.07
2018-06-14T08:25:28.234Z,24.02
2018-06-14T08:27:54.211Z,24.07
2018-06-14T08:30:20.376Z,24.08
2018-06-14T08:32:46.408Z,24.08
2018-06-14T08:35:12.368Z,24.06
2018-06-14T08:37:38.312Z,24.13
2018-06-14T08:40:04.278Z,24.15
2018-06-14T08:42:30.233Z,24.06
2018-06-14T08:44:56.214Z,23.99
2018-06-14T08:47:22.174Z,24.06
2018-06-14T08:49:48.135Z,24.16
2018-06-14T08:52:14.108Z,24.13
2018-06-14T08:54:40.083Z,24.05
2018-06-14T08:57:06.079Z,24.01
2018-06-14T08:59:32.075Z,24.05
2018-06-14T09:01:58.058Z,24.02
2018-06-14T09:04:23.999Z,24.12
2018-06-14T09:06:49.959Z,24.02
2018-06-14T09:09:15.927Z,24.06
2018-06-14T09:11:41.888Z,24.05
2018-06-14T09:14:07.868Z,24.07
2018-06-14T09:16:33.837Z,24.00
2018-06-14T09:18:59.798Z,24.06
2018-06-14T09:21:25.760Z,24.07
2018-06-14T09:23:51.734Z,24.05
2018-06-14T09:26:17.682Z,24.13
2018-06-14T09:28:43.686Z,24.04
2018-06-14T09:31:09.660Z,24.04
2018-06-14T09:33:35.640Z,24.08
2018-06-14T09:36:01.617Z,24.10
2018-06-14T09:38:27.579Z,24.09
2018-06-14T09:40:53.545Z,24.11
2018-06-14T09:43:19.509Z,24.02
2018-06-14T09:45:45.473Z,24.02
2018-06-14T09:48:11.440Z,24.05
2018-06-14T09:50:37.470Z,23.99
2018-06-14T09:53:03.475Z,24.08
2018-06-14T09:55:29.421Z,24.10
2018-06-14T09:57:55.395Z,24.11
2018-06-14T10:00:21.577Z,24.19
2018-06-14T10:02:47.478Z,24.30
2018-06-14T10:05:13.457Z,24.32
2018-06-14T10:07:39.416Z,24.26
2018-06-14T10:10:05.398Z,24.08
2018-06-14T10:12:31.362Z,24.02
2018-06-14T10:14:57.915Z,24.26
2018-06-14T10:17:23.889Z,24.34
2018-06-14T10:19:49.872Z,24.28
2018-06-14T10:22:15.851Z,24.37
2018-06-14T10:24:41.898Z,24.27
2018-06-14T10:27:07.883Z,24.16
2018-06-14T10:29:33.840Z,24.19
2018-06-14T10:31:59.813Z,24.18
2018-06-14T10:34:25.796Z,24.10
2018-06-14T10:36:51.774Z,24.08
2018-06-14T10:39:17.723Z,24.12
2018-06-14T10:41:43.674Z,24.09
2018-06-14T10:44:09.641Z,24.05
2018-06-14T10:46:35.618Z,24.07
2018-06-14T10:49:01.603Z,24.03
2018-06-14T10:51:27.580Z,24.05
2018-06-14T10:53:53.579Z,24.20
2018-06-14T10:56:19.583Z,24.20
2018-06-14T10:58:45.549Z,24.34
2018-06-14T11:01:11.549Z,24.23
2018-06-14T11:03:37.540Z,24.17
2018-06-14T11:06:03.599Z,24.16
2018-06-14T11:08:29.520Z,24.03
2018-06-14T11:10:55.527Z,24.05
2018-06-14T11:13:21.499Z,24.05
2018-06-14T11:15:47.452Z,24.06
2018-06-14T11:18:13.436Z,24.05
2018-06-14T11:20:39.459Z,24.08
2018-06-14T11:23:05.446Z,24.08
2018-06-14T11:25:31.431Z,24.03
2018-06-14T11:27:57.405Z,24.08
2018-06-14T11:30:23.381Z,24.13
2018-06-14T11:32:49.380Z,24.04
2018-06-14T11:35:15.368Z,24.05
2018-06-14T11:37:41.320Z,24.05
2018-06-14T11:40:07.279Z,23.99
2018-06-14T11:42:33.270Z,24.15
2018-06-14T11:44:59.212Z,24.06
2018-06-14T11:47:25.185Z,24.01
2018-06-14T11:49:51.153Z,24.00
2018-06-14T11:52:17.133Z,24.07
2018-06-14T11:54:43.103Z,24.07
2018-06-14T11:57:09.089Z,24.07
2018-06-14T11:59:35.060Z,24.12
2018-06-14T12:02:01.021Z,24.10
2018-06-14T12:04:26.979Z,24.03
2018-06-14T12:06:52.949Z,24.11
2018-06-14T12:09:18.913Z,24.11
2018-06-14T12:11:44.888Z,24.05
2018-06-14T12:14:10.886Z,24.10
2018-06-14T12:16:36.926Z,24.17
2018-06-14T12:19:02.913Z,24.44
2018-06-14T12:21:28.895Z,24.15
2018-06-14T12:23:54.881Z,24.12
2018-06-14T12:26:20.861Z,24.12
2018-06-14T12:28:46.900Z,24.15
2018-06-14T12:31:12.865Z,24.13
2018-06-14T12:33:38.827Z,24.12
2018-06-14T12:36:04.776Z,24.14
2018-06-14T12:38:30.728Z,24.13
2018-06-14T12:40:56.689Z,24.09
2018-06-14T12:43:22.640Z,24.11
2018-06-14T12:45:48.607Z,24.11
2018-06-14T12:48:14.556Z,24.10
2018-06-14T12:50:40.538Z,24.14
2018-06-14T12:53:06.519Z,24.07
2018-06-14T12:55:32.514Z,24.04
2018-06-14T12:57:58.542Z,24.06
2018-06-14T13:00:24.517Z,24.13
2018-06-14T13:02:50.505Z,24.08
2018-06-14T13:05:16.489Z,24.08
2018-06-14T13:07:42.452Z,24.12
2018-06-14T13:10:08.422Z,24.08
2018-06-14T13:12:34.389Z,24.07
2018-06-14T13:15:00.352Z,23.99
2018-06-14T13:17:26.347Z,24.04
2018-06-14T13:19:52.329Z,24.01
2018-06-14T13:22:18.284Z,24.04
2018-06-14T13:24:44.273Z,24.02
2018-06-14T13:27:10.232Z,24.08
2018-06-14T13:29:36.196Z,24.06
2018-06-14T13:32:02.160Z,24.02
2018-06-14T13:34:28.134Z,24.06
2018-06-14T13:36:54.088Z,24.11
2018-06-14T13:39:20.042Z,24.15
2018-06-14T13:41:46.037Z,24.14
2018-06-14T13:44:11.995Z,24.16
2018-06-14T13:46:37.949Z,24.24
2018-06-14T13:49:04.082Z,24.22
2018-06-14T13:51:29.879Z,24.22
2018-06-14T13:53:55.842Z,24.34
2018-06-14T13:56:21.791Z,24.17
2018-06-14T13:58:47.754Z,24.18
2018-06-14T14:01:14.676Z,24.13
2018-06-14T14:03:40.645Z,24.10
2018-06-14T14:06:06.612Z,24.10
2018-06-14T14:08:32.589Z,24.17
2018-06-14T14:10:58.577Z,24.11
2018-06-14T14:13:24.544Z,24.16
2018-06-14T14:15:50.569Z,24.11
2018-06-14T14:18:16.546Z,24.15
2018-06-14T14:20:42.538Z,24.08
2018-06-14T14:23:08.512Z,24.17
2018-06-14T14:25:34.485Z,24.18
2018-06-14T14:28:00.436Z,24.25
2018-06-14T14:30:26.442Z,24.19
2018-06-14T14:32:52.422Z,24.20
2018-06-14T14:35:18.416Z,24.21
2018-06-14T14:37:44.421Z,24.27
2018-06-14T14:40:10.420Z,24.22
2018-06-14T14:42:36.462Z,24.30
2018-06-14T14:45:02.394Z,24.25
2018-06-14T14:47:28.378Z,24.26
2018-06-14T14:49:54.334Z,24.34
2018-06-14T14:52:20.320Z,24.28
2018-06-14T14:54:46.330Z,24.30
2018-06-14T14:57:12.264Z,24.26
2018-06-14T14:59:38.227Z,24.28
2018-06-14T15:02:04.201Z,24.27
2018-06-14T15:04:30.165Z,24.25
2018-06-14T15:06:56.133Z,24.26
2018-06-14T15:09:22.111Z,24.31
2018-06-14T15:11:48.066Z,24.32
2018-06-14T15:14:14.051Z,24.30
2018-06-14T15:16:40.024Z,24.27
2018-06-14T15:19:05.989Z,24.28
2018-06-14T15:21:31.949Z,24.29
2018-06-14T15:23:57.914Z,24.32
2018-06-14T15:26:23.872Z,24.42
2018-06-14T15:28:49.849Z,24.36
2018-06-14T15:31:15.816Z,24.32
2018-06-14T15:33:41.818Z,24.33
2018-06-14T15:36:07.811Z,24.44
2018-06-14T15:38:33.806Z,24.32
2018-06-14T15:40:59.762Z,24.29
2018-06-14T15:43:25.762Z,24.34
2018-06-14T15:45:51.708Z,24.25
2018-06-14T15:48:17.667Z,24.21
2018-06-14T15:50:43.637Z,24.19
2018-06-14T15:53:09.692Z,24.20
2018-06-14T15:55:35.661Z,24.18
2018-06-14T15:58:01.658Z,24.23
2018-06-14T16:00:27.668Z,24.20
2018-06-14T16:02:53.665Z,24.23
2018-06-14T16:05:19.653Z,24.20
2018-06-14T16:07:45.636Z,24.25
2018-06-14T16:10:11.624Z,24.23
2018-06-14T16:12:37.619Z,24.27
2018-06-14T16:15:03.603Z,24.39
2018-06-14T16:17:29.583Z,24.33
2018-06-14T16:19:55.545Z,24.45
2018-06-14T16:22:21.518Z,24.36
2018-06-14T16:24:47.502Z,24.21
2018-06-14T16:27:13.458Z,24.23
2018-06-14T16:29:39.423Z,24.23
2018-06-14T16:32:05.387Z,24.18
2018-06-14T16:34:31.356Z,24.22
2018-06-14T16:36:57.351Z,24.17
2018-06-14T16:39:23.338Z,24.20
2018-06-14T16:41:49.323Z,24.39
2018-06-14T16:44:15.313Z,24.31
2018-06-14T16:46:41.342Z,24.22
2018-06-14T16:49:07.299Z,24.17
2018-06-14T16:51:33.260Z,24.21
2018-06-14T16:53:59.254Z,24.21
2018-06-14T16:56:25.217Z,24.23
2018-06-14T16:58:51.177Z,24.22
2018-06-14T17:01:17.196Z,24.23
2018-06-14T17:03:43.128Z,24.27
2018-06-14T17:06:09.082Z,24.30
2018-06-14T17:08:35.095Z,24.48
2018-06-14T17:11:01.083Z,24.26
2018-06-14T17:13:27.079Z,24.29
2018-06-14T17:15:53.066Z,24.29
2018-06-14T17:18:19.084Z,24.35
2018-06-14T17:20:45.153Z,24.26
2018-06-14T17:23:11.164Z,24.34
2018-06-14T17:25:37.157Z,24.33
2018-06-14T17:28:03.120Z,24.28
2018-06-14T17:30:29.152Z,24.32
2018-06-14T17:32:55.188Z,24.35
2018-06-14T17:35:21.193Z,24.44
2018-06-14T17:37:47.166Z,24.38
2018-06-14T17:40:13.123Z,24.49
2018-06-14T17:42:39.164Z,24.41
2018-06-14T17:45:05.158Z,24.43
2018-06-14T17:47:31.149Z,24.40
2018-06-14T17:49:57.171Z,24.39
2018-06-14T17:52:23.134Z,24.37
2018-06-14T17:54:51.197Z,24.40
2018-06-14T17:57:17.258Z,24.35
2018-06-14T17:59:43.230Z,24.39
2018-06-14T18:02:09.253Z,24.36
2018-06-14T18:04:35.246Z,24.38
2018-06-14T18:07:01.230Z,24.39
2018-06-14T18:09:27.221Z,24.41
2018-06-14T18:11:53.190Z,24.35
2018-06-14T18:14:19.174Z,24.35
2018-06-14T18:16:45.166Z,24.38
2018-06-14T18:19:11.167Z,24.42
2018-06-14T18:21:37.191Z,24.35
2018-06-14T18:24:03.240Z,24.38
2018-06-14T18:26:29.219Z,24.40
2018-06-14T18:28:55.202Z,24.40
2018-06-14T18:31:21.176Z,24.37
2018-06-14T18:33:47.164Z,24.41
2018-06-14T18:36:13.467Z,24.43
2018-06-14T18:38:39.445Z,24.43
2018-06-14T18:41:06.202Z,24.43
2018-06-14T18:43:32.175Z,24.55
2018-06-14T18:45:58.166Z,24.41
2018-06-14T18:48:24.148Z,24.45
2018-06-14T18:50:50.160Z,24.43
2018-06-14T18:53:16.206Z,24.62
2018-06-14T18:55:42.161Z,24.44
2018-06-14T18:58:08.145Z,24.37
2018-06-14T19:00:34.113Z,24.34
2018-06-14T19:03:00.093Z,24.35
2018-06-14T19:05:26.087Z,24.36
2018-06-14T19:07:52.060Z,24.34
2018-06-14T19:10:18.047Z,24.28
2018-06-14T19:12:44.058Z,24.29
2018-06-14T19:15:10.091Z,24.26
2018-06-14T19:17:36.198Z,24.30
2018-06-14T19:20:02.070Z,24.35
2018-06-14T19:22:28.077Z,24.38
2018-06-14T19:24:54.083Z,24.34
2018-06-14T19:27:20.040Z,24.34
2018-06-14T19:29:46.031Z,24.31
2018-06-14T19:32:12.071Z,24.27
2018-06-14T19:34:38.072Z,24.30
2018-06-14T19:37:04.077Z,24.30
2018-06-14T19:39:30.056Z,24.41
2018-06-14T19:41:56.085Z,24.47
2018-06-14T19:44:22.061Z,24.66
2018-06-14T19:46:48.096Z,24.91
2018-06-14T19:49:14.101Z,24.96
2018-06-14T19:51:40.161Z,24.95
2018-06-14T19:54:06.158Z,24.89
2018-06-14T19:56:32.140Z,24.90
2018-06-14T19:58:58.111Z,24.88
2018-06-14T20:01:24.096Z,24.80
2018-06-14T20:03:50.073Z,24.77
2018-06-14T20:06:16.071Z,24.88
2018-06-14T20:08:42.053Z,24.87
2018-06-14T20:11:08.077Z,24.89
2018-06-14T20:13:34.048Z,24.91
2018-06-14T20:16:00.070Z,24.85
2018-06-14T20:18:26.036Z,24.83
2018-06-14T20:20:52.116Z,24.99
2018-06-14T20:23:18.121Z,24.68
2018-06-14T20:25:44.092Z,24.98
2018-06-14T20:28:10.074Z,25.09
2018-06-14T20:30:36.061Z,25.10
2018-06-14T20:33:02.101Z,25.11
2018-06-14T20:35:28.128Z,25.10
2018-06-14T20:37:54.106Z,24.80
2018-06-14T20:40:20.089Z,24.80
2018-06-14T20:42:46.079Z,24.77
2018-06-14T20:45:12.059Z,24.78
2018-06-14T20:47:38.061Z,24.58
2018-06-14T20:50:04.049Z,24.47
2018-06-14T20:52:30.106Z,24.43
2018-06-14T20:54:56.093Z,24.35
2018-06-14T20:57:22.084Z,24.31
2018-06-14T20:59:48.089Z,24.29
2018-06-14T21:02:14.053Z,24.25
2018-06-14T21:04:40.056Z,24.24
2018-06-14T21:07:06.029Z,24.23
2018-06-14T21:09:32.030Z,24.22
2018-06-14T21:11:58.081Z,24.33
2018-06-14T21:14:24.128Z,24.47
2018-06-14T21:16:50.090Z,24.36
2018-06-14T21:19:16.111Z,24.35
2018-06-14T21:21:42.098Z,24.34
2018-06-14T21:24:08.097Z,24.24
2018-06-14T21:26:34.114Z,24.17
2018-06-14T21:29:00.111Z,24.16
2018-06-14T21:31:26.105Z,24.18
2018-06-14T21:33:52.130Z,24.15
2018-06-14T21:36:18.109Z,24.20
2018-06-14T21:38:44.138Z,24.20
2018-06-14T21:41:10.126Z,24.15
2018-06-14T21:43:36.114Z,24.17
2018-06-14T21:46:02.112Z,24.14
2018-06-14T21:48:28.141Z,24.14
2018-06-14T21:50:54.161Z,24.13
2018-06-14T21:53:20.211Z,24.26
2018-06-14T21:55:46.228Z,24.27
2018-06-14T21:58:12.255Z,24.34
2018-06-14T22:00:38.251Z,24.41
2018-06-14T22:03:04.270Z,24.33
2018-06-14T22:05:30.278Z,24.18
2018-06-14T22:07:56.250Z,24.14
2018-06-14T22:10:22.286Z,24.36
2018-06-14T22:12:48.298Z,24.33
2018-06-14T22:15:14.292Z,24.22
2018-06-14T22:17:40.658Z,24.22
2018-06-14T22:20:06.653Z,24.18
2018-06-14T22:22:32.657Z,24.20
2018-06-14T22:24:58.651Z,24.14
2018-06-14T22:27:24.672Z,24.14
2018-06-14T22:29:50.668Z,24.22
2018-06-14T22:32:16.641Z,24.22
2018-06-14T22:34:42.656Z,24.11
2018-06-14T22:37:08.637Z,24.12
2018-06-14T22:39:34.639Z,24.16
2018-06-14T22:42:00.686Z,24.21
2018-06-14T22:44:26.791Z,24.20
2018-06-14T22:46:52.728Z,24.21
2018-06-14T22:49:18.713Z,24.15
2018-06-14T22:51:44.775Z,24.14
2018-06-14T22:54:10.766Z,24.14
2018-06-14T22:56:36.744Z,24.19
2018-06-14T22:59:02.712Z,24.24
2018-06-14T23:01:28.681Z,24.23
2018-06-14T23:03:54.690Z,24.12
2018-06-14T23:06:20.725Z,24.11
2018-06-14T23:08:46.689Z,24.14
2018-06-14T23:11:12.696Z,24.18
2018-06-14T23:13:38.670Z,24.16
2018-06-14T23:16:04.649Z,24.24
2018-06-14T23:18:30.640Z,24.17
2018-06-14T23:20:56.618Z,24.23
2018-06-14T23:23:22.621Z,24.18
2018-06-14T23:25:48.700Z,24.26
2018-06-14T23:28:14.670Z,24.25
2018-06-14T23:30:40.668Z,24.11
2018-06-14T23:33:06.648Z,24.12
2018-06-14T23:35:32.623Z,24.08
2018-06-14T23:37:58.623Z,24.14
2018-06-14T23:40:24.615Z,24.11
2018-06-14T23:42:50.614Z,24.10
2018-06-14T23:45:16.598Z,24.18
2018-06-14T23:47:42.697Z,24.12
2018-06-14T23:50:08.714Z,24.15
2018-06-14T23:52:34.716Z,24.22
2018-06-14T23:55:00.679Z,24.29
2018-06-14T23:57:26.733Z,24.18
2018-06-14T23:59:53.712Z,24.14
